Time;durP1;ratioP1;P1;durP2;ratioP2;P2;SDS_P1;SDS_P2;PMS_P1;PMS_P2;Temp;Humidity;BMP_temperature;BMP_pressure;BME280_temperature;BME280_humidity;BME280_pressure;Samples;Min_cycle;Max_cycle;Signal;HPM_P1;HPM_P2
2023/07/28 00:01:18;;;;;;;21.70;2.75;;;;;;;19.09;96.19;100089.69;5074048;28;20263;-68
2023/07/28 00:03:46;;;;;;;21.52;2.78;;;;;;;19.09;97.33;100094.06;5110585;28;20197;-68
2023/07/28 00:06:14;;;;;;;20.98;2.67;;;;;;;18.95;97.07;100086.47;5112132;28;20299;-69
2023/07/28 00:08:41;;;;;;;21.13;2.75;;;;;;;18.83;98.17;100060.44;5113384;28;20517;-68
2023/07/28 00:11:11;;;;;;;20.92;2.63;;;;;;;18.99;96.99;100067.13;5113466;28;20205;-68
2023/07/28 00:13:38;;;;;;;12.63;2.08;;;;;;;19.02;96.83;100097.72;5107189;28;20198;-69
2023/07/28 00:16:05;;;;;;;22.58;2.85;;;;;;;19.10;96.97;100091.44;5099095;28;20198;-68
2023/07/28 00:18:32;;;;;;;20.95;2.63;;;;;;;19.07;97.15;100091.50;5094058;28;20194;-69
2023/07/28 00:21:00;;;;;;;21.00;2.60;;;;;;;19.02;97.59;100088.06;5095799;28;20589;-68
2023/07/28 00:23:27;;;;;;;19.40;2.53;;;;;;;18.84;97.24;100075.28;5113740;28;20197;-68
2023/07/28 00:25:53;;;;;;;19.90;2.63;;;;;;;18.88;97.83;100076.97;5113915;28;20229;-68
2023/07/28 00:28:20;;;;;;;21.30;2.72;;;;;;;19.00;98.05;100096.91;5114187;28;20197;-68
2023/07/28 00:30:50;;;;;;;23.00;2.85;;;;;;;18.89;98.30;100080.47;5114115;28;20194;-68
2023/07/28 00:33:17;;;;;;;16.73;2.25;;;;;;;18.98;98.58;100102.16;5111113;28;20204;-68
2023/07/28 00:35:43;;;;;;;17.10;2.28;;;;;;;18.91;98.74;100107.56;5093535;28;20206;-68
2023/07/28 00:38:12;;;;;;;23.50;2.85;;;;;;;19.03;97.94;100107.34;5041553;28;20202;-68
2023/07/28 00:40:38;;;;;;;18.45;2.42;;;;;;;18.87;99.20;100106.75;5093885;28;20198;-68
2023/07/28 00:43:05;;;;;;;19.23;2.50;;;;;;;18.93;98.86;100103.16;5093308;28;20206;-68
2023/07/28 00:45:33;;;;;;;21.75;2.80;;;;;;;18.77;98.88;100099.94;5093316;28;20271;-68
2023/07/28 00:48:01;;;;;;;17.42;2.35;;;;;;;18.85;99.70;100105.94;5093686;28;20653;-68
2023/07/28 00:50:28;;;;;;;25.30;3.10;;;;;;;18.77;100.00;100102.56;5100877;28;20687;-68
2023/07/28 00:52:56;;;;;;;19.90;2.63;;;;;;;18.91;100.00;100102.31;5057230;28;20209;-68
2023/07/28 00:55:25;;;;;;;19.15;2.53;;;;;;;18.71;100.00;100102.69;5056684;28;20198;-67
2023/07/28 00:57:51;;;;;;;17.60;2.35;;;;;;;18.64;100.00;100087.91;5093265;28;20205;-68
2023/07/28 01:00:18;;;;;;;20.05;2.70;;;;;;;18.75;100.00;100088.59;5103033;28;20198;-68
2023/07/28 01:02:45;;;;;;;21.08;2.75;;;;;;;18.81;100.00;100102.47;5104856;28;20629;-67
2023/07/28 01:05:12;;;;;;;23.25;2.75;;;;;;;18.73;100.00;100087.75;5074425;28;20232;-67
2023/07/28 01:07:48;;;;;;;21.85;2.80;;;;;;;18.96;99.63;100098.72;5106755;28;20198;-67
2023/07/28 01:10:19;;;;;;;16.02;2.35;;;;;;;18.93;99.51;100098.78;5093527;28;20201;-68
2023/07/28 01:12:47;;;;;;;15.75;2.20;;;;;;;18.93;99.61;100093.53;5101286;28;20206;-69
2023/07/28 01:15:15;;;;;;;10.88;1.75;;;;;;;18.90;99.32;100101.47;5092828;28;20198;-68
2023/07/28 01:17:42;;;;;;;12.90;1.90;;;;;;;18.98;97.92;100104.78;5056108;28;20284;-68
2023/07/28 01:20:10;;;;;;;13.25;2.03;;;;;;;18.75;98.09;100092.09;5108961;28;20213;-68
2023/07/28 01:22:49;;;;;;;10.52;1.75;;;;;;;18.74;98.47;100108.75;5112522;28;20557;-67
2023/07/28 01:25:29;;;;;;;14.10;2.08;;;;;;;18.61;99.84;100090.59;5106705;28;20217;-68
2023/07/28 01:27:58;;;;;;;13.75;2.00;;;;;;;18.49;100.00;100098.66;5092721;28;20209;-68
2023/07/28 01:30:26;;;;;;;16.02;2.22;;;;;;;18.51;100.00;100099.53;5093837;28;20210;-68
2023/07/28 01:32:55;;;;;;;15.38;2.17;;;;;;;18.46;100.00;100096.06;5104923;28;20229;-67
2023/07/28 01:35:22;;;;;;;22.77;2.72;;;;;;;18.30;100.00;100098.06;5057335;28;20206;-67
2023/07/28 01:37:50;;;;;;;18.05;2.30;;;;;;;18.34;100.00;100108.50;5104237;28;20198;-67
2023/07/28 01:40:17;;;;;;;21.50;2.75;;;;;;;18.35;100.00;100104.13;5112644;28;20270;-68
2023/07/28 01:42:44;;;;;;;18.02;2.40;;;;;;;18.44;100.00;100105.75;5104237;28;20734;-67
2023/07/28 01:45:12;;;;;;;17.40;2.35;;;;;;;18.53;100.00;100114.38;5100939;28;20222;-68
2023/07/28 01:47:39;;;;;;;18.35;2.38;;;;;;;18.58;100.00;100107.28;5102000;28;20270;-68
2023/07/28 01:50:07;;;;;;;17.50;2.38;;;;;;;18.58;100.00;100103.78;5092497;28;20283;-68
2023/07/28 01:52:33;;;;;;;19.58;2.42;;;;;;;18.32;100.00;100078.81;5094285;28;20202;-68
2023/07/28 01:55:00;;;;;;;17.08;2.28;;;;;;;18.61;100.00;100111.63;5092396;28;20209;-68
2023/07/28 01:57:28;;;;;;;15.77;2.25;;;;;;;18.49;100.00;100114.41;5085407;28;20201;-68
2023/07/28 01:59:55;;;;;;;27.90;3.38;;;;;;;18.51;100.00;100117.94;5111889;28;20248;-67
2023/07/28 02:02:23;;;;;;;22.08;2.75;;;;;;;18.47;100.00;100113.56;5108315;28;20266;-68
2023/07/28 02:04:49;;;;;;;24.67;3.03;;;;;;;18.38;100.00;100113.72;5091510;28;20301;-68
2023/07/28 02:07:16;;;;;;;23.73;2.95;;;;;;;18.38;100.00;100121.59;5092680;28;20624;-68
2023/07/28 02:09:43;;;;;;;18.23;2.50;;;;;;;18.41;100.00;100119.78;5094263;28;20733;-68
2023/07/28 02:12:10;;;;;;;18.20;2.45;;;;;;;18.36;100.00;100123.38;5069624;28;20193;-68
2023/07/28 02:14:36;;;;;;;16.25;2.33;;;;;;;18.34;100.00;100134.75;5095733;28;20190;-68
2023/07/28 02:17:03;;;;;;;13.32;1.98;;;;;;;18.38;100.00;100124.22;5056136;28;20194;-67
2023/07/28 02:19:32;;;;;;;21.33;2.67;;;;;;;18.29;100.00;100125.25;5091641;28;20205;-67
2023/07/28 02:21:58;;;;;;;25.08;2.97;;;;;;;18.17;100.00;100125.41;5091432;28;20194;-68
2023/07/28 02:24:25;;;;;;;20.42;2.67;;;;;;;17.86;100.00;100061.19;5091047;28;20197;-68
2023/07/28 02:26:54;;;;;;;16.48;2.25;;;;;;;18.20;100.00;100131.50;5090657;28;20265;-69
2023/07/28 02:29:21;;;;;;;22.20;2.78;;;;;;;18.06;100.00;100111.59;5091721;28;20638;-68
2023/07/28 02:31:48;;;;;;;17.92;2.42;;;;;;;18.17;100.00;100141.16;5091568;28;20201;-68
2023/07/28 02:34:14;;;;;;;21.20;2.67;;;;;;;18.13;100.00;100127.22;5102055;28;20206;-68
2023/07/28 02:36:42;;;;;;;24.83;3.00;;;;;;;18.22;100.00;100129.72;5090754;28;20206;-68
2023/07/28 02:39:09;;;;;;;20.75;2.53;;;;;;;18.18;100.00;100130.66;5091331;28;20579;-68
2023/07/28 02:41:36;;;;;;;21.70;2.75;;;;;;;18.02;100.00;100105.50;5091091;28;20710;-69
2023/07/28 02:44:03;;;;;;;24.90;2.97;;;;;;;18.24;100.00;100141.06;5094356;28;20672;-68
2023/07/28 02:46:30;;;;;;;27.48;3.25;;;;;;;18.22;100.00;100128.84;5111177;28;20213;-68
2023/07/28 02:48:56;;;;;;;26.00;3.05;;;;;;;18.23;100.00;100139.31;5110784;28;20255;-67
2023/07/28 02:51:23;;;;;;;25.45;3.10;;;;;;;18.17;100.00;100130.66;5102991;28;20214;-67
2023/07/28 02:53:51;;;;;;;23.38;2.88;;;;;;;18.25;100.00;100124.44;5101473;28;20258;-68
2023/07/28 02:56:20;;;;;;;20.77;2.67;;;;;;;18.20;100.00;100136.75;5092179;28;20698;-67
2023/07/28 02:58:47;;;;;;;20.25;2.65;;;;;;;18.23;100.00;100143.69;5104025;28;20580;-68
2023/07/28 03:01:13;;;;;;;25.25;3.10;;;;;;;18.31;100.00;100144.44;5106467;28;20201;-68
2023/07/28 03:03:40;;;;;;;19.30;2.58;;;;;;;18.48;100.00;100136.31;5111140;28;20194;-68
2023/07/28 03:06:07;;;;;;;22.35;2.72;;;;;;;18.45;100.00;100141.59;5095663;28;20304;-67
2023/07/28 03:08:34;;;;;;;23.60;2.92;;;;;;;18.52;100.00;100146.75;5084928;28;20568;-67
2023/07/28 03:11:03;;;;;;;16.38;2.25;;;;;;;18.39;100.00;100162.72;5109032;28;20193;-67
2023/07/28 03:13:29;;;;;;;22.95;2.90;;;;;;;18.38;100.00;100155.72;5102016;28;20237;-67
2023/07/28 03:15:56;;;;;;;22.27;2.70;;;;;;;18.08;100.00;100142.19;5098818;28;20616;-67
2023/07/28 03:18:23;;;;;;;22.80;2.92;;;;;;;18.23;100.00;100160.31;5108628;28;20197;-67
2023/07/28 03:20:50;;;;;;;14.23;2.00;;;;;;;18.38;100.00;100156.59;5064668;28;20205;-67
2023/07/28 03:23:16;;;;;;;30.35;3.47;;;;;;;18.30;100.00;100164.56;5105178;28;20209;-66
2023/07/28 03:25:43;;;;;;;25.98;3.08;;;;;;;18.40;100.00;100156.56;5047174;28;20234;-67
2023/07/28 03:28:11;;;;;;;24.25;2.97;;;;;;;18.52;100.00;100159.03;5110924;28;20667;-67
2023/07/28 03:30:38;;;;;;;17.15;2.28;;;;;;;18.50;100.00;100166.03;5109035;28;20197;-67
2023/07/28 03:33:05;;;;;;;22.52;2.83;;;;;;;18.55;100.00;100159.00;5110318;28;20201;-66
2023/07/28 03:35:32;;;;;;;26.90;3.25;;;;;;;18.60;100.00;100162.41;5111215;28;20209;-67
2023/07/28 03:37:58;;;;;;;26.85;3.17;;;;;;;18.77;100.00;100166.47;5104043;28;20194;-67
2023/07/28 03:40:25;;;;;;;20.92;2.63;;;;;;;19.08;100.00;100156.31;5090697;28;20656;-67
2023/07/28 03:45:14;;;;;;;14.05;2.65;;;;;;;19.82;92.78;100169.78;5087791;27;20542;-67
2023/07/28 03:47:41;;;;;;;3.90;2.03;;;;;;;20.02;88.09;100140.38;5073949;28;20253;-68
2023/07/28 03:50:08;;;;;;;3.85;2.00;;;;;;;20.54;84.57;100174.31;5076588;28;20198;-67
2023/07/28 03:52:35;;;;;;;2.55;1.80;;;;;;;20.68;82.40;100161.66;5074359;28;20202;-68
2023/07/28 03:55:01;;;;;;;1.10;1.10;;;;;;;21.10;80.73;100149.13;5083161;28;20712;-67
2023/07/28 03:57:28;;;;;;;1.42;1.42;;;;;;;21.61;77.48;100183.81;5068084;28;20209;-68
2023/07/28 03:59:55;;;;;;;1.20;1.20;;;;;;;22.13;73.68;100186.69;5052450;28;20664;-67
2023/07/28 04:02:23;;;;;;;1.30;1.30;;;;;;;22.68;70.13;100171.75;5086115;28;20198;-68
2023/07/28 04:04:54;;;;;;;0.90;0.90;;;;;;;23.52;66.69;100180.31;5088507;28;20198;-67
2023/07/28 04:07:21;;;;;;;0.70;0.70;;;;;;;24.43;62.94;100185.66;5086617;28;20191;-68
2023/07/28 04:09:48;;;;;;;1.38;1.38;;;;;;;24.86;58.80;100190.09;5067001;28;20206;-68
2023/07/28 04:12:14;;;;;;;1.08;1.08;;;;;;;24.56;57.31;100191.31;5082345;28;20258;-69
2023/07/28 04:14:41;;;;;;;1.00;1.00;;;;;;;24.43;58.31;100196.25;5071544;28;20716;-66
2023/07/28 04:17:08;;;;;;;1.00;1.00;;;;;;;24.59;57.35;100193.84;5067940;28;20203;-67
2023/07/28 04:19:36;;;;;;;1.00;1.00;;;;;;;24.92;56.35;100197.81;5067481;28;20697;-67
2023/07/28 04:22:03;;;;;;;1.15;1.15;;;;;;;24.79;56.91;100183.31;5067897;28;20273;-67
2023/07/28 04:24:30;;;;;;;1.00;1.00;;;;;;;25.16;54.71;100199.41;5067646;28;20254;-67
2023/07/28 04:26:58;;;;;;;0.80;0.80;;;;;;;25.73;52.74;100203.13;5067857;28;20195;-68
2023/07/28 04:29:26;;;;;;;1.00;1.00;;;;;;;25.73;52.74;100183.66;5064533;28;20218;-67
2023/07/28 04:31:54;;;;;;;1.05;1.05;;;;;;;26.04;51.74;100211.41;5067093;28;20202;-68
2023/07/28 04:34:21;;;;;;;1.00;1.00;;;;;;;26.22;50.81;100219.50;5063530;28;20227;-68
2023/07/28 04:36:49;;;;;;;1.00;1.00;;;;;;;25.44;51.41;100208.81;5047648;28;20670;-66
2023/07/28 04:39:16;;;;;;;0.80;0.80;;;;;;;25.82;51.27;100194.75;5064408;28;20208;-67
2023/07/28 04:41:42;;;;;;;1.00;1.00;;;;;;;26.77;48.52;100215.91;5076792;28;20199;-68
2023/07/28 04:44:09;;;;;;;1.10;1.10;;;;;;;27.50;47.41;100212.25;5066828;28;20337;-68
2023/07/28 04:46:36;;;;;;;0.90;0.90;;;;;;;27.81;46.58;100220.31;5066636;28;20210;-68
2023/07/28 04:49:03;;;;;;;1.00;1.00;;;;;;;27.91;45.15;100218.88;5066831;28;20210;-72
2023/07/28 04:51:30;;;;;;;1.17;1.17;;;;;;;28.17;45.32;100225.50;5077078;28;20234;-69
2023/07/28 04:53:58;;;;;;;1.25;1.25;;;;;;;27.81;45.51;100236.31;5066627;28;20230;-67
2023/07/28 04:56:25;;;;;;;0.80;0.80;;;;;;;28.31;44.90;100214.94;5035713;28;20270;-69
2023/07/28 04:58:51;;;;;;;1.00;1.00;;;;;;;28.67;44.13;100232.47;5053291;28;20198;-68
2023/07/28 05:01:18;;;;;;;1.02;1.02;;;;;;;29.29;42.64;100231.53;5018739;28;20202;-67
2023/07/28 05:03:45;;;;;;;1.20;1.20;;;;;;;29.69;41.24;100246.88;5053526;28;20569;-68
2023/07/28 05:06:12;;;;;;;1.20;1.20;;;;;;;29.30;41.99;100215.41;5062626;28;21034;-68
2023/07/28 05:08:38;;;;;;;1.27;1.27;;;;;;;29.36;40.91;100248.94;5063046;28;20206;-69
2023/07/28 05:11:07;;;;;;;1.27;0.90;;;;;;;28.86;42.00;100243.84;5072625;28;20202;-68
2023/07/28 05:13:33;;;;;;;1.00;1.00;;;;;;;28.84;41.95;100253.75;5039080;28;20648;-68
2023/07/28 05:16:00;;;;;;;1.17;1.17;;;;;;;28.98;41.77;100241.31;5015892;28;20207;-67
2023/07/28 05:18:27;;;;;;;1.05;1.05;;;;;;;28.91;41.53;100242.63;5039779;28;20219;-67
2023/07/28 05:20:54;;;;;;;1.20;1.20;;;;;;;29.07;41.54;100244.41;5058228;28;20645;-67
2023/07/28 05:23:22;;;;;;;1.20;1.20;;;;;;;28.99;41.30;100229.69;5056482;28;20692;-67
2023/07/28 05:25:48;;;;;;;1.25;1.25;;;;;;;29.24;41.39;100245.13;5055708;28;20222;-67
2023/07/28 05:28:16;;;;;;;1.30;1.30;;;;;;;29.49;40.12;100248.09;5003786;28;20207;-68
2023/07/28 05:30:43;;;;;;;1.20;1.20;;;;;;;28.98;40.40;100248.47;5050943;28;20203;-68
2023/07/28 05:33:10;;;;;;;1.35;1.25;;;;;;;28.67;42.68;100249.38;5055392;28;20217;-68
2023/07/28 05:35:38;;;;;;;1.45;1.35;;;;;;;28.65;43.07;100229.88;5052539;28;20226;-72
2023/07/28 05:38:05;;;;;;;1.50;1.40;;;;;;;28.84;41.96;100251.94;5061262;28;20623;-69
2023/07/28 05:40:31;;;;;;;1.48;1.38;;;;;;;28.88;41.87;100250.81;5052425;28;20215;-70
2023/07/28 05:42:58;;;;;;;1.55;1.45;;;;;;;28.82;41.84;100248.50;5038163;28;20257;-69
2023/07/28 05:45:26;;;;;;;1.65;1.55;;;;;;;28.85;41.97;100253.66;5052361;28;20207;-69
2023/07/28 05:47:53;;;;;;;1.42;1.33;;;;;;;28.54;41.80;100242.97;5033555;28;20331;-69
2023/07/28 05:50:20;;;;;;;1.88;1.63;;;;;;;27.92;43.14;100251.75;5042867;28;20196;-69
2023/07/28 05:52:47;;;;;;;1.58;1.48;;;;;;;27.35;43.93;100248.50;5047360;28;20206;-69
2023/07/28 05:55:13;;;;;;;1.75;1.55;;;;;;;27.28;44.54;100246.22;5052043;28;20648;-69
2023/07/28 05:57:40;;;;;;;1.63;1.42;;;;;;;27.31;44.26;100224.75;5004113;28;20672;-70
2023/07/28 06:00:09;;;;;;;2.03;1.55;;;;;;;27.20;44.94;100243.94;5051412;28;20207;-69
2023/07/28 06:02:39;;;;;;;1.65;1.55;;;;;;;27.13;44.78;100245.19;5033489;28;20273;-69
2023/07/28 06:05:06;;;;;;;1.52;1.40;;;;;;;27.59;45.28;100241.91;5050125;28;20206;-69
2023/07/28 06:07:33;;;;;;;1.58;1.42;;;;;;;27.40;44.38;100235.78;5032162;28;20638;-69
2023/07/28 06:10:00;;;;;;;2.38;1.73;;;;;;;26.90;44.46;100234.81;5037648;28;20196;-68
2023/07/28 06:12:26;;;;;;;1.75;1.50;;;;;;;26.27;47.02;100233.44;5043083;28;20204;-69
2023/07/28 06:14:53;;;;;;;2.38;1.75;;;;;;;25.58;47.97;100227.69;5046429;28;20655;-68
2023/07/28 06:17:20;;;;;;;1.67;1.50;;;;;;;25.45;47.98;100237.09;5051569;28;20199;-69
2023/07/28 06:19:48;;;;;;;2.67;1.88;;;;;;;25.30;49.22;100235.09;5051491;28;20257;-69
2023/07/28 06:22:15;;;;;;;2.20;1.67;;;;;;;25.28;49.05;100235.19;5051457;28;20607;-70
2023/07/28 06:24:42;;;;;;;1.80;1.60;;;;;;;24.79;51.30;100235.47;5051774;28;20195;-69
2023/07/28 06:27:10;;;;;;;1.83;1.50;;;;;;;24.59;52.19;100233.63;5051705;28;20265;-68
2023/07/28 06:29:37;;;;;;;1.80;1.45;;;;;;;24.45;52.60;100238.59;5051622;28;20670;-69
2023/07/28 06:32:04;;;;;;;2.45;1.83;;;;;;;24.26;54.31;100234.97;5051661;28;20226;-68
2023/07/28 06:34:30;;;;;;;2.08;1.70;;;;;;;24.05;55.53;100234.78;5032908;28;20223;-69
2023/07/28 06:36:59;;;;;;;3.75;2.28;;;;;;;23.88;56.80;100234.56;5051679;28;20210;-69
2023/07/28 06:39:25;;;;;;;1.92;1.55;;;;;;;23.81;57.53;100237.50;5051439;28;20524;-69
2023/07/28 06:41:55;;;;;;;2.47;1.80;;;;;;;24.06;57.76;100239.19;5051576;28;20200;-69
2023/07/28 06:44:22;;;;;;;1.50;1.40;;;;;;;24.00;58.32;100228.81;5051451;28;20235;-68
2023/07/28 06:46:48;;;;;;;1.45;1.33;;;;;;;24.03;59.24;100228.72;5051292;28;20195;-69
2023/07/28 06:49:15;;;;;;;1.50;1.40;;;;;;;24.07;59.22;100230.31;5051171;28;20203;-69
2023/07/28 06:51:42;;;;;;;1.50;1.40;;;;;;;24.24;57.56;100229.69;5051450;28;20192;-69
2023/07/28 06:54:12;;;;;;;1.60;1.50;;;;;;;24.27;56.81;100223.41;5051127;28;20223;-69
2023/07/28 06:56:39;;;;;;;2.13;1.80;;;;;;;24.45;56.24;100218.25;5051256;28;20578;-69
2023/07/28 06:59:06;;;;;;;1.60;1.50;;;;;;;24.42;55.58;100225.47;5051050;28;20199;-70
2023/07/28 07:01:33;;;;;;;1.73;1.45;;;;;;;24.55;55.83;100224.91;5051114;28;20203;-69
2023/07/28 07:04:00;;;;;;;2.08;1.70;;;;;;;24.75;53.06;100221.47;5051279;28;20206;-70
2023/07/28 07:06:27;;;;;;;2.25;2.05;;;;;;;24.71;55.69;100219.88;5050994;28;20191;-70
2023/07/28 07:08:54;;;;;;;1.75;1.63;;;;;;;24.84;53.70;100204.34;5050958;28;20234;-70
2023/07/28 07:11:22;;;;;;;1.50;1.40;;;;;;;25.02;58.15;100223.00;5050784;28;20203;-73
2023/07/28 07:13:48;;;;;;;1.50;1.40;;;;;;;25.12;54.87;100224.34;5050817;28;20199;-70
2023/07/28 07:16:16;;;;;;;1.70;1.52;;;;;;;24.98;55.24;100216.09;5050820;28;20569;-70
2023/07/28 07:18:43;;;;;;;2.13;1.60;;;;;;;24.97;56.05;100224.16;5050501;28;20199;-70
2023/07/28 07:21:10;;;;;;;1.95;1.60;;;;;;;25.04;52.77;100230.91;5015692;28;20207;-69
2023/07/28 07:23:37;;;;;;;1.48;1.38;;;;;;;24.98;54.25;100220.53;5050774;28;20203;-70
2023/07/28 07:26:04;;;;;;;1.95;1.65;;;;;;;25.15;54.95;100220.69;5050591;28;20195;-69
2023/07/28 07:28:32;;;;;;;1.58;1.48;;;;;;;25.14;52.10;100227.81;5050602;28;20603;-70
2023/07/28 07:30:59;;;;;;;1.63;1.52;;;;;;;25.02;52.15;100222.16;5050852;28;20238;-70
2023/07/28 07:33:25;;;;;;;1.70;1.60;;;;;;;25.13;53.43;100227.88;5050512;28;20195;-70
2023/07/28 07:35:52;;;;;;;1.77;1.67;;;;;;;25.21;52.45;100235.50;5050603;28;20227;-70
2023/07/28 07:38:19;;;;;;;1.98;1.73;;;;;;;25.30;53.00;100227.13;5050533;28;20204;-70
2023/07/28 07:40:47;;;;;;;1.75;1.55;;;;;;;25.44;53.10;100232.72;5050538;28;20223;-70
2023/07/28 07:43:18;;;;;;;1.52;1.42;;;;;;;25.03;51.50;100202.66;5050182;28;20224;-70
2023/07/28 07:45:49;;;;;;;2.17;1.55;;;;;;;25.03;50.60;100224.75;5050453;28;20261;-70
2023/07/28 07:48:16;;;;;;;1.60;1.45;;;;;;;25.04;49.54;100233.56;5050331;28;20195;-69
2023/07/28 07:50:43;;;;;;;2.25;1.73;;;;;;;25.12;50.36;100227.00;5050318;28;20724;-69
2023/07/28 07:53:10;;;;;;;2.22;1.90;;;;;;;25.17;49.59;100225.03;5050339;28;20261;-69
2023/07/28 07:55:36;;;;;;;1.40;1.30;;;;;;;25.21;49.88;100230.19;5050328;28;20296;-70
2023/07/28 07:58:03;;;;;;;2.13;1.77;;;;;;;25.21;50.47;100222.25;5050347;28;20689;-69
2023/07/28 08:00:30;;;;;;;2.05;1.67;;;;;;;25.34;50.43;100220.78;5050424;28;20227;-69
2023/07/28 08:02:58;;;;;;;1.83;1.55;;;;;;;25.53;48.34;100213.78;5050466;28;20206;-69
2023/07/28 08:05:25;;;;;;;1.60;1.50;;;;;;;25.67;47.46;100227.31;5050173;28;20203;-70
2023/07/28 08:07:52;;;;;;;1.63;1.48;;;;;;;25.82;46.71;100218.66;5050367;28;20203;-69
2023/07/28 08:10:19;;;;;;;1.63;1.52;;;;;;;25.54;45.90;100216.34;5050122;28;20214;-72
2023/07/28 08:12:47;;;;;;;1.90;1.60;;;;;;;25.70;47.25;100226.28;5046643;28;20215;-71
2023/07/28 08:15:14;;;;;;;1.83;1.58;;;;;;;25.92;47.59;100221.75;5029902;28;20231;-70
2023/07/28 08:17:40;;;;;;;1.70;1.60;;;;;;;25.81;42.41;100224.88;5033546;28;20204;-70
2023/07/28 08:20:10;;;;;;;1.60;1.42;;;;;;;25.61;43.99;100147.91;5044978;28;20215;-70
2023/07/28 08:22:37;;;;;;;2.13;1.92;;;;;;;26.06;43.98;100220.19;5049694;28;20199;-70
2023/07/28 08:25:04;;;;;;;2.30;1.63;;;;;;;26.02;40.83;100233.69;5049878;28;20191;-72
2023/07/28 08:27:31;;;;;;;1.85;1.58;;;;;;;26.03;42.16;100224.78;5047918;28;20668;-71
2023/07/28 08:29:58;;;;;;;1.73;1.63;;;;;;;25.84;40.95;100224.75;5031457;28;20666;-72
2023/07/28 08:32:24;;;;;;;1.60;1.50;;;;;;;25.85;41.56;100220.31;5042487;28;20211;-69
2023/07/28 08:34:51;;;;;;;2.42;1.80;;;;;;;25.71;41.27;100228.91;5034753;28;20231;-71
2023/07/28 08:37:19;;;;;;;2.17;1.55;;;;;;;25.64;39.60;100211.50;5051256;28;20710;-72
2023/07/28 08:39:46;;;;;;;2.05;1.63;;;;;;;25.63;40.73;100223.94;5053651;28;20212;-71
2023/07/28 08:42:13;;;;;;;1.67;1.58;;;;;;;25.56;41.71;100225.13;5053586;28;20211;-71
2023/07/28 08:44:40;;;;;;;2.97;2.10;;;;;;;25.49;41.56;100220.13;5039618;28;20235;-72
2023/07/28 08:47:07;;;;;;;1.73;1.58;;;;;;;25.40;47.53;100207.25;5052980;28;20202;-72
2023/07/28 08:49:36;;;;;;;1.92;1.60;;;;;;;25.28;50.13;100187.41;5051356;28;20728;-72
2023/07/28 08:52:04;;;;;;;1.30;1.20;;;;;;;25.64;44.14;100217.69;5053107;28;20233;-71
2023/07/28 08:54:32;;;;;;;2.65;1.90;;;;;;;25.74;42.93;100222.56;5053163;28;20207;-71
2023/07/28 08:56:59;;;;;;;2.15;1.50;;;;;;;25.96;43.05;100205.59;5053229;28;20273;-71
2023/07/28 08:59:28;;;;;;;1.52;1.42;;;;;;;26.18;43.66;100201.97;5053188;28;20204;-70
2023/07/28 09:01:56;;;;;;;2.40;1.73;;;;;;;26.06;42.48;100206.91;5051938;28;20199;-69
2023/07/28 09:04:23;;;;;;;1.60;1.50;;;;;;;25.78;43.09;100202.91;5033035;28;20287;-70
2023/07/28 09:06:51;;;;;;;1.58;1.45;;;;;;;25.74;42.78;100204.84;5047144;28;20211;-68
2023/07/28 09:09:21;;;;;;;2.03;1.63;;;;;;;25.88;43.26;100193.59;5038978;28;20210;-70
2023/07/28 09:11:51;;;;;;;2.72;1.80;;;;;;;25.99;42.45;100170.91;5053059;28;20207;-70
2023/07/28 09:14:19;;;;;;;2.10;1.50;;;;;;;25.70;43.56;100189.09;5052668;28;20214;-69
2023/07/28 09:16:47;;;;;;;2.58;1.80;;;;;;;25.89;43.26;100188.22;5052713;28;20796;-69
2023/07/28 09:19:14;;;;;;;2.17;1.67;;;;;;;25.93;42.68;100183.63;5052589;28;20253;-69
2023/07/28 09:21:44;;;;;;;2.42;1.75;;;;;;;26.29;42.65;100194.34;5042934;28;20242;-69
2023/07/28 09:24:13;;;;;;;3.33;1.90;;;;;;;26.18;42.51;100194.00;5046273;28;20670;-69
2023/07/28 09:26:41;;;;;;;2.83;1.83;;;;;;;26.19;42.28;100183.28;5052835;28;20717;-69
2023/07/28 09:29:17;;;;;;;2.03;1.40;;;;;;;26.20;42.27;100178.81;5052572;28;20238;-70
2023/07/28 09:31:44;;;;;;;3.05;1.88;;;;;;;26.11;42.18;100183.59;5045232;28;20203;-69
2023/07/28 09:34:13;;;;;;;3.17;1.90;;;;;;;25.93;42.69;100173.84;5046494;28;20207;-69
2023/07/28 09:36:40;;;;;;;3.97;2.00;;;;;;;25.95;43.49;100190.59;5052581;28;20223;-69
2023/07/28 09:39:08;;;;;;;2.97;1.80;;;;;;;26.19;42.42;100177.09;5050395;28;20203;-68
2023/07/28 09:41:37;;;;;;;2.47;1.65;;;;;;;26.29;42.52;100178.41;5038101;28;20203;-70
2023/07/28 09:44:04;;;;;;;2.22;1.65;;;;;;;26.32;42.62;100155.19;5052377;28;20223;-70
2023/07/28 09:46:34;;;;;;;2.50;1.63;;;;;;;26.32;42.37;100175.59;5052299;28;20717;-70
2023/07/28 09:49:05;;;;;;;2.83;1.73;;;;;;;26.04;43.79;100176.00;5052344;28;20198;-67
2023/07/28 09:51:35;;;;;;;3.30;1.85;;;;;;;26.44;43.92;100167.88;5052204;28;20697;-70
2023/07/28 09:54:05;;;;;;;3.00;1.88;;;;;;;26.71;41.83;100171.00;5052211;28;20712;-68
2023/07/28 09:56:34;;;;;;;3.15;1.85;;;;;;;26.73;42.32;100145.16;5052045;28;20318;-68
2023/07/28 09:59:04;;;;;;;3.47;1.92;;;;;;;27.03;42.37;100161.41;5052156;28;20659;-72
2023/07/28 10:01:33;;;;;;;2.40;1.58;;;;;;;26.62;42.35;100139.50;5052220;28;20199;-73
2023/07/28 10:04:01;;;;;;;3.47;2.03;;;;;;;26.65;40.55;100155.31;5052039;28;20195;-73
2023/07/28 10:06:29;;;;;;;2.22;1.60;;;;;;;26.57;43.31;100131.78;5052012;28;20199;-73
2023/07/28 10:08:56;;;;;;;2.50;1.80;;;;;;;26.91;42.85;100146.06;5052035;28;20195;-73
2023/07/28 10:11:24;;;;;;;1.95;1.63;;;;;;;27.00;42.87;100141.09;5017075;28;20674;-73
2023/07/28 10:13:55;;;;;;;3.22;1.80;;;;;;;27.00;42.52;100146.44;5017250;28;20203;-72
2023/07/28 10:16:31;;;;;;;2.45;1.65;;;;;;;27.16;42.20;100124.34;5051795;28;20225;-73
2023/07/28 10:19:00;;;;;;;2.38;1.58;;;;;;;27.04;42.67;100137.34;5051749;28;20566;-72
2023/07/28 10:21:29;;;;;;;2.08;1.50;;;;;;;27.04;41.50;100110.72;5051791;28;20238;-73
2023/07/28 10:23:56;;;;;;;1.40;1.30;;;;;;;27.05;42.97;100120.44;5052049;28;20203;-73
2023/07/28 10:26:35;;;;;;;2.38;1.67;;;;;;;27.25;42.39;100134.53;5051847;28;20192;-72
2023/07/28 10:29:12;;;;;;;3.13;1.80;;;;;;;27.31;41.46;100118.22;5051791;28;20207;-73
2023/07/28 10:31:50;;;;;;;3.00;1.80;;;;;;;27.39;39.87;100116.03;5051580;28;20638;-73
2023/07/28 10:34:19;;;;;;;3.88;2.10;;;;;;;27.47;38.42;100108.50;5051748;28;20199;-73
2023/07/28 10:36:46;;;;;;;1.77;1.60;;;;;;;27.51;40.26;100120.69;5051468;28;20223;-73
2023/07/28 10:39:17;;;;;;;2.92;1.70;;;;;;;27.70;41.14;100110.78;5051574;28;20221;-72
2023/07/28 10:42:03;;;;;;;2.67;1.70;;;;;;;27.77;38.85;100116.63;5051333;28;20203;-73
2023/07/28 10:44:30;;;;;;;2.70;1.70;;;;;;;27.61;38.45;100113.09;5051008;28;20238;-72
2023/07/28 10:46:57;;;;;;;2.10;1.58;;;;;;;27.70;37.83;100105.44;5049300;28;20219;-73
2023/07/28 10:49:26;;;;;;;2.15;1.45;;;;;;;27.89;38.34;100103.50;5051521;28;20289;-73
2023/07/28 10:51:53;;;;;;;2.92;1.70;;;;;;;27.93;38.96;100101.53;5051270;28;20709;-73
2023/07/28 10:54:21;;;;;;;2.40;1.85;;;;;;;27.82;37.98;100095.94;5050635;28;20199;-72
2023/07/28 10:56:48;;;;;;;2.05;1.60;;;;;;;27.80;38.76;100100.47;5050935;28;20314;-69
2023/07/28 10:59:16;;;;;;;1.80;1.48;;;;;;;27.42;37.92;100074.09;5051352;28;20235;-71
2023/07/28 11:01:43;;;;;;;1.73;1.38;;;;;;;27.58;38.56;100053.69;5051190;28;20682;-69
2023/07/28 11:04:15;;;;;;;1.88;1.30;;;;;;;27.94;37.33;100081.88;5051131;28;20195;-69
2023/07/28 11:06:45;;;;;;;2.50;1.50;;;;;;;27.93;37.54;100051.69;5050999;28;20195;-70
2023/07/28 11:09:14;;;;;;;2.78;1.80;;;;;;;27.92;36.86;100082.00;5050962;28;20204;-70
2023/07/28 11:11:42;;;;;;;2.08;1.52;;;;;;;27.53;36.76;100087.72;5050867;28;20200;-70
2023/07/28 11:14:09;;;;;;;2.35;1.83;;;;;;;27.75;38.86;100074.09;5050824;28;20781;-76
2023/07/28 11:16:37;;;;;;;2.10;1.52;;;;;;;27.72;38.54;100071.56;5050914;28;20227;-73
2023/07/28 11:19:09;;;;;;;2.35;1.70;;;;;;;27.81;38.79;100068.41;5048934;28;20287;-73
2023/07/28 11:21:38;;;;;;;2.83;1.77;;;;;;;27.79;39.43;100053.47;5050905;28;20195;-73
2023/07/28 11:24:09;;;;;;;1.85;1.38;;;;;;;27.83;39.26;100058.50;5048851;28;20200;-73
2023/07/28 11:26:36;;;;;;;2.92;1.75;;;;;;;27.83;39.16;100046.97;5050695;28;20246;-73